Time;durP1;ratioP1;P1;durP2;ratioP2;P2;SDS_P1;SDS_P2;PMS_P1;PMS_P2;Temp;Humidity;BMP_temperature;BMP_pressure;BME280_temperature;BME280_humidity;BME280_pressure;Samples;Min_cycle;Max_cycle;Signal;HPM_P1;HPM_P2
2022/10/03 00:01:39;;;;;;;81.60;18.75;;;;;;;;;;5046930;28;20037;-63
2022/10/03 00:04:15;;;;;;;79.70;17.33;;;;;;;;;;5049872;28;20041;-63
2022/10/03 00:06:53;;;;;;;92.80;18.55;;;;;;;;;;5050135;28;20068;-63
2022/10/03 00:09:19;;;;;;;76.18;15.77;;;;;;;;;;5046257;28;20123;-63
2022/10/03 00:11:58;;;;;;;96.47;17.23;;;;;;;;;;5045340;28;20064;-63
2022/10/03 00:14:33;;;;;;;105.43;18.77;;;;;;;;;;5046183;28;20037;-63
2022/10/03 00:17:11;;;;;;;57.10;16.20;;;;;;;;;;5046682;28;20051;-63
2022/10/03 00:19:56;;;;;;;91.60;17.20;;;;;;;;;;5046238;28;20076;-63
2022/10/03 00:22:32;;;;;;;109.57;17.35;;;;;;;;;;5046074;28;20038;-63
2022/10/03 00:25:17;;;;;;;89.90;15.63;;;;;;;;;;5047024;28;20409;-65
2022/10/03 00:27:49;;;;;;;99.63;16.83;;;;;;;;;;5049763;28;20049;-65
2022/10/03 00:30:17;;;;;;;80.80;15.40;;;;;;;;;;5045955;28;20033;-62
2022/10/03 00:32:43;;;;;;;49.72;13.57;;;;;;;;;;5046262;28;20040;-60
2022/10/03 00:35:30;;;;;;;73.85;15.45;;;;;;;;;;5046118;28;20124;-60
2022/10/03 00:37:56;;;;;;;89.13;15.15;;;;;;;;;;5022828;28;20817;-60
2022/10/03 00:40:35;;;;;;;79.45;13.90;;;;;;;;;;5023380;28;20066;-60
2022/10/03 00:43:36;;;;;;;80.00;15.05;;;;;;;;;;5024189;28;20054;-59
2022/10/03 00:46:18;;;;;;;114.15;16.98;;;;;;;;;;5024190;28;20049;-59
2022/10/03 00:48:54;;;;;;;76.82;14.70;;;;;;;;;;5026346;28;20694;-60
2022/10/03 00:51:26;;;;;;;97.43;15.80;;;;;;;;;;5022979;28;20088;-60
2022/10/03 00:53:55;;;;;;;86.00;15.70;;;;;;;;;;5022431;28;20046;-65
2022/10/03 00:56:34;;;;;;;81.43;15.90;;;;;;;;;;5022902;28;20718;-64
2022/10/03 00:59:01;;;;;;;62.78;15.13;;;;;;;;;;5023162;28;20049;-64
2022/10/03 01:01:30;;;;;;;74.50;15.15;;;;;;;;;;5022878;28;20418;-60
2022/10/03 01:03:57;;;;;;;92.65;15.68;;;;;;;;;;5027286;28;20080;-61
2022/10/03 01:06:25;;;;;;;63.38;15.20;;;;;;;;;;5023812;28;20050;-61
2022/10/03 01:08:57;;;;;;;75.50;15.93;;;;;;;;;;5022412;28;20057;-62
2022/10/03 01:11:29;;;;;;;80.88;16.35;;;;;;;;;;5022741;28;20050;-61
2022/10/03 01:14:05;;;;;;;75.10;15.48;;;;;;;;;;5023015;28;20053;-63
2022/10/03 01:16:40;;;;;;;90.70;16.35;;;;;;;;;;5038816;28;20052;-62
2022/10/03 01:19:25;;;;;;;87.85;15.63;;;;;;;;;;5049510;28;20115;-62
2022/10/03 01:21:54;;;;;;;102.20;16.90;;;;;;;;;;5049799;28;20049;-62
2022/10/03 01:24:41;;;;;;;70.32;13.27;;;;;;;;;;5044964;28;20044;-63
2022/10/03 01:27:14;;;;;;;73.00;13.30;;;;;;;;;;5026364;28;20045;-61
2022/10/03 01:32:25;;;;;;;52.83;13.10;;;;;;;;;;5026636;28;20754;-60
2022/10/03 01:35:10;;;;;;;74.05;15.48;;;;;;;;;;5026536;28;20044;-62
2022/10/03 01:37:44;;;;;;;87.47;13.73;;;;;;;;;;5025558;28;20053;-62
2022/10/03 01:40:28;;;;;;;89.85;13.02;;;;;;;;;;5026281;28;20502;-62
2022/10/03 01:42:54;;;;;;;;;;;;;;;;;;5034410;28;20128;-61
2022/10/03 01:45:36;;;;;;;64.82;13.95;;;;;;;;;;5026403;28;19974;-62
2022/10/03 01:48:13;;;;;;;76.93;12.68;;;;;;;;;;5025924;28;20064;-62
2022/10/03 01:50:47;;;;;;;61.95;12.35;;;;;;;;;;5026399;28;20168;-61
2022/10/03 01:53:33;;;;;;;66.75;12.85;;;;;;;;;;5025717;28;20045;-62
2022/10/03 01:56:08;;;;;;;83.38;14.85;;;;;;;;;;5025988;28;20061;-61
2022/10/03 01:58:47;;;;;;;78.55;12.80;;;;;;;;;;5025139;28;20075;-60
2022/10/03 02:01:27;;;;;;;70.07;13.02;;;;;;;;;;5025743;28;20037;-60
2022/10/03 02:04:01;;;;;;;71.80;13.45;;;;;;;;;;5029287;28;20057;-59
2022/10/03 02:06:30;;;;;;;;;;;;;;;;;;5045944;28;20037;-60
2022/10/03 02:08:56;;;;;;;59.08;13.02;;;;;;;;;;5043637;28;20373;-60
2022/10/03 02:11:54;;;;;;;61.78;12.95;;;;;;;;;;5042635;28;20067;-60
2022/10/03 02:14:20;;;;;;;87.25;14.30;;;;;;;;;;5036062;28;20164;-62
2022/10/03 02:17:06;;;;;;;76.45;12.45;;;;;;;;;;5044152;28;20033;-61
2022/10/03 02:19:32;;;;;;;81.38;13.05;;;;;;;;;;5043763;28;20378;-62
2022/10/03 02:21:59;;;;;;;94.40;13.80;;;;;;;;;;5047601;28;20116;-61
2022/10/03 02:24:34;;;;;;;81.43;12.52;;;;;;;;;;5047914;28;20068;-61
2022/10/03 02:27:20;;;;;;;77.63;13.25;;;;;;;;;;5044208;28;20120;-61
2022/10/03 02:30:05;;;;;;;80.28;12.60;;;;;;;;;;5043433;28;20037;-61
2022/10/03 02:32:50;;;;;;;61.25;10.50;;;;;;;;;;5044329;28;20076;-58
2022/10/03 02:35:26;;;;;;;112.05;14.13;;;;;;;;;;5043484;28;20044;-59
2022/10/03 02:38:05;;;;;;;84.03;12.07;;;;;;;;;;5043281;28;20041;-59
2022/10/03 02:40:34;;;;;;;64.68;12.00;;;;;;;;;;5043812;28;20065;-60
2022/10/03 02:43:10;;;;;;;56.63;11.07;;;;;;;;;;5047966;28;20496;-60
2022/10/03 02:45:46;;;;;;;74.57;11.80;;;;;;;;;;5048362;28;20059;-58
2022/10/03 02:48:25;;;;;;;66.38;11.30;;;;;;;;;;5043759;28;20041;-59
2022/10/03 02:51:03;;;;;;;60.47;12.00;;;;;;;;;;5043394;28;20029;-60
2022/10/03 02:53:39;;;;;;;57.97;11.27;;;;;;;;;;5043297;28;20037;-60
2022/10/03 02:56:12;;;;;;;52.67;10.77;;;;;;;;;;5043733;28;20093;-60
2022/10/03 02:58:50;;;;;;;62.22;11.90;;;;;;;;;;5043604;28;20049;-60
2022/10/03 03:01:19;;;;;;;89.25;12.32;;;;;;;;;;5045484;28;20063;-61
2022/10/03 03:03:46;;;;;;;76.35;10.50;;;;;;;;;;5048570;28;20060;-62
2022/10/03 03:06:36;;;;;;;60.70;9.88;;;;;;;;;;5043391;28;20044;-61
2022/10/03 03:09:22;;;;;;;68.13;9.63;;;;;;;;;;5041058;28;20044;-62
2022/10/03 03:11:48;;;;;;;84.55;10.32;;;;;;;;;;5046064;28;20420;-60
2022/10/03 03:14:28;;;;;;;81.88;9.88;;;;;;;;;;5047903;28;20059;-58
2022/10/03 03:16:59;;;;;;;58.80;7.15;;;;;;;;;;5051962;28;20033;-58
2022/10/03 03:19:29;;;;;;;54.58;7.65;;;;;;;;;;5047605;28;20045;-58
2022/10/03 03:22:05;;;;;;;66.07;7.65;;;;;;;;;;5047980;28;20699;-58
2022/10/03 03:24:37;;;;;;;46.10;6.95;;;;;;;;;;5049139;28;20127;-58
2022/10/03 03:27:18;;;;;;;63.53;7.47;;;;;;;;;;5047433;28;20068;-58
2022/10/03 03:29:54;;;;;;;113.43;10.73;;;;;;;;;;5046766;28;20047;-59
2022/10/03 03:32:39;;;;;;;63.08;7.68;;;;;;;;;;5047262;28;20382;-59
2022/10/03 03:35:12;;;;;;;70.00;8.30;;;;;;;;;;5047339;28;20052;-59
2022/10/03 03:37:48;;;;;;;69.78;7.93;;;;;;;;;;5047095;28;20047;-59
2022/10/03 03:40:21;;;;;;;73.32;8.65;;;;;;;;;;5049474;28;20040;-59
2022/10/03 03:43:07;;;;;;;77.10;9.30;;;;;;;;;;5051187;28;20502;-58
2022/10/03 03:45:59;;;;;;;51.72;8.68;;;;;;;;;;5048950;28;20049;-59
2022/10/03 03:48:37;;;;;;;72.40;10.70;;;;;;;;;;5047140;28;20122;-60
2022/10/03 03:51:10;;;;;;;65.45;10.75;;;;;;;;;;5047670;28;20075;-62
2022/10/03 03:53:56;;;;;;;52.60;10.32;;;;;;;;;;5050541;28;20033;-61
2022/10/03 03:56:22;;;;;;;75.38;11.30;;;;;;;;;;5051192;28;20445;-61
2022/10/03 03:58:52;;;;;;;57.85;11.70;;;;;;;;;;5047247;28;20132;-61
2022/10/03 04:01:37;;;;;;;102.38;13.85;;;;;;;;;;5047925;28;20532;-64
2022/10/03 04:04:22;;;;;;;77.90;11.95;;;;;;;;;;5047173;28;20123;-64
2022/10/03 04:07:12;;;;;;;90.30;12.45;;;;;;;;;;5050535;28;20052;-64
2022/10/03 04:09:58;;;;;;;72.32;11.98;;;;;;;;;;5026832;28;20659;-64
2022/10/03 04:12:39;;;;;;;44.88;9.93;;;;;;;;;;5024025;28;20054;-65
2022/10/03 04:15:08;;;;;;;60.22;10.75;;;;;;;;;;5023655;28;20053;-60
2022/10/03 04:20:43;;;;;;;66.35;10.95;;;;;;;;;;5023222;28;20042;-63
2022/10/03 04:23:15;;;;;;;80.85;12.95;;;;;;;;;;5018143;28;20100;-64
2022/10/03 04:25:53;;;;;;;91.68;14.38;;;;;;;;;;5023205;28;20050;-61
2022/10/03 04:28:25;;;;;;;84.18;13.38;;;;;;;;;;5024428;28;20111;-60
2022/10/03 04:30:52;;;;;;;67.60;13.52;;;;;;;;;;5027652;28;20049;-58
2022/10/03 04:33:18;;;;;;;82.35;15.07;;;;;;;;;;5023216;28;20060;-60
2022/10/03 04:35:44;;;;;;;101.82;16.63;;;;;;;;;;5026110;28;20049;-60
2022/10/03 04:38:14;;;;;;;71.78;15.40;;;;;;;;;;5022734;28;20053;-60
2022/10/03 04:40:57;;;;;;;92.35;15.98;;;;;;;;;;5023158;28;20049;-60
2022/10/03 04:43:42;;;;;;;63.22;16.23;;;;;;;;;;5024554;28;20034;-59
2022/10/03 04:46:28;;;;;;;84.75;17.40;;;;;;;;;;5028995;28;20493;-60
2022/10/03 04:49:15;;;;;;;89.97;20.30;;;;;;;;;;5050721;28;20144;-60
2022/10/03 04:52:01;;;;;;;108.90;21.25;;;;;;;;;;5048713;28;20075;-59
2022/10/03 04:54:47;;;;;;;75.47;19.65;;;;;;;;;;5047149;28;20430;-59
2022/10/03 04:57:13;;;;;;;101.63;20.42;;;;;;;;;;5043822;28;20040;-60
2022/10/03 04:59:59;;;;;;;93.55;20.35;;;;;;;;;;5043926;28;20086;-59
2022/10/03 05:02:39;;;;;;;86.60;20.55;;;;;;;;;;5045702;28;20029;-60
2022/10/03 05:05:13;;;;;;;68.78;16.05;;;;;;;;;;5045774;28;20041;-60
2022/10/03 05:07:41;;;;;;;;;;;;;;;;;;5046179;28;20053;-60
2022/10/03 05:10:20;;;;;;;85.13;19.15;;;;;;;;;;5042663;28;19928;-59
2022/10/03 05:12:50;;;;;;;96.13;20.80;;;;;;;;;;5048963;28;20417;-59
2022/10/03 05:15:20;;;;;;;102.13;22.33;;;;;;;;;;5045431;28;20401;-60
2022/10/03 05:18:07;;;;;;;96.55;20.88;;;;;;;;;;5045523;28;20033;-59
2022/10/03 05:20:52;;;;;;;86.15;20.77;;;;;;;;;;5037693;28;20591;-60
2022/10/03 05:23:38;;;;;;;68.43;19.27;;;;;;;;;;5044918;28;20116;-59
2022/10/03 05:26:07;;;;;;;84.20;18.10;;;;;;;;;;5045237;28;20076;-60
2022/10/03 05:29:14;;;;;;;103.38;19.77;;;;;;;;;;5045304;28;20041;-59
2022/10/03 05:32:00;;;;;;;87.93;19.67;;;;;;;;;;5045041;28;20099;-60
2022/10/03 05:34:37;;;;;;;59.42;16.88;;;;;;;;;;5045860;28;20041;-60
2022/10/03 05:37:24;;;;;;;99.03;16.17;;;;;;;;;;5045853;28;20130;-60
2022/10/03 05:39:50;;;;;;;91.30;19.10;;;;;;;;;;5027943;28;20095;-60
2022/10/03 05:42:36;;;;;;;67.25;18.58;;;;;;;;;;5026859;28;20103;-59
2022/10/03 05:45:23;;;;;;;96.43;18.33;;;;;;;;;;5026545;28;20061;-60
2022/10/03 05:47:54;;;;;;;110.72;19.38;;;;;;;;;;5026369;28;20041;-60
2022/10/03 05:50:28;;;;;;;119.50;19.25;;;;;;;;;;5026951;28;20991;-59
2022/10/03 05:53:02;;;;;;;75.55;14.77;;;;;;;;;;5026609;28;20045;-59
2022/10/03 05:55:42;;;;;;;82.80;16.75;;;;;;;;;;5026403;28;20486;-59
2022/10/03 05:58:27;;;;;;;96.63;15.80;;;;;;;;;;5026462;28;20068;-62
2022/10/03 06:00:59;;;;;;;58.38;13.77;;;;;;;;;;5046602;28;20049;-60
2022/10/03 06:03:44;;;;;;;60.35;12.35;;;;;;;;;;5026471;28;20061;-59
2022/10/03 06:06:19;;;;;;;57.38;12.98;;;;;;;;;;5032073;28;20063;-60
2022/10/03 06:08:52;;;;;;;83.03;14.60;;;;;;;;;;5031210;28;20472;-60
2022/10/03 06:11:33;;;;;;;87.00;12.77;;;;;;;;;;5025770;28;20044;-60
2022/10/03 06:14:04;;;;;;;63.38;10.88;;;;;;;;;;5026057;28;20042;-60
2022/10/03 06:16:38;;;;;;;81.35;10.77;;;;;;;;;;5041207;28;20057;-60
2022/10/03 06:19:43;;;;;;;88.25;9.90;;;;;;;;;;5044910;28;20390;-60
2022/10/03 06:22:16;;;;;;;109.28;11.25;;;;;;;;;;5045273;28;20056;-60
2022/10/03 06:25:01;;;;;;;59.30;7.53;;;;;;;;;;5048207;28;20063;-60
2022/10/03 06:27:45;;;;;;;63.22;7.95;;;;;;;;;;5045533;28;20067;-60
2022/10/03 06:30:15;;;;;;;46.15;7.05;;;;;;;;;;5045805;28;20043;-60
2022/10/03 06:32:42;;;;;;;64.57;8.45;;;;;;;;;;5045332;28;20563;-59
2022/10/03 06:35:26;;;;;;;77.78;9.20;;;;;;;;;;5045627;28;20052;-59
2022/10/03 06:38:11;;;;;;;61.28;8.05;;;;;;;;;;5045128;28;20049;-59
2022/10/03 06:40:38;;;;;;;68.30;9.20;;;;;;;;;;5045503;28;20096;-60
2022/10/03 06:43:05;;;;;;;58.95;9.07;;;;;;;;;;5045450;28;20055;-60
2022/10/03 06:46:04;;;;;;;66.18;9.52;;;;;;;;;;5044757;28;20045;-60
2022/10/03 06:48:39;;;;;;;62.42;9.73;;;;;;;;;;5002209;28;20065;-61
2022/10/03 06:51:15;;;;;;;74.38;10.93;;;;;;;;;;5001811;28;20672;-60
2022/10/03 06:53:41;;;;;;;94.57;10.32;;;;;;;;;;4997619;28;20053;-60
2022/10/03 06:56:10;;;;;;;92.00;11.25;;;;;;;;;;4997441;28;20046;-60
2022/10/03 06:58:55;;;;;;;46.17;7.68;;;;;;;;;;4997694;28;20199;-60
2022/10/03 07:01:23;;;;;;;72.95;7.97;;;;;;;;;;5000949;28;20054;-60
2022/10/03 07:03:50;;;;;;;74.63;8.85;;;;;;;;;;5004189;28;20097;-61
2022/10/03 07:06:25;;;;;;;48.40;7.78;;;;;;;;;;4997643;28;20049;-59
2022/10/03 07:09:00;;;;;;;80.18;9.55;;;;;;;;;;5001170;28;20053;-60
2022/10/03 07:11:29;;;;;;;56.92;7.53;;;;;;;;;;4996886;28;20050;-61
2022/10/03 07:13:56;;;;;;;65.63;8.27;;;;;;;;;;4997518;28;20038;-61
2022/10/03 07:16:31;;;;;;;63.13;6.40;;;;;;;;;;4988036;28;20554;-61
2022/10/03 07:19:10;;;;;;;70.50;8.07;;;;;;;;;;5006626;28;20125;-61
2022/10/03 07:21:55;;;;;;;97.03;8.65;;;;;;;;;;5002750;28;20557;-60
2022/10/03 07:24:43;;;;;;;64.30;7.15;;;;;;;;;;5020343;28;20053;-61
2022/10/03 07:27:29;;;;;;;62.55;6.97;;;;;;;;;;5036790;28;20047;-60
2022/10/03 07:30:02;;;;;;;73.47;7.47;;;;;;;;;;5043360;28;20045;-60
2022/10/03 07:32:31;;;;;;;47.58;6.25;;;;;;;;;;5043747;28;20397;-60
2022/10/03 07:38:56;;;;;;;83.80;8.35;;;;;;;;;;5043694;28;20037;-60
2022/10/03 07:41:26;;;;;;;56.15;6.82;;;;;;;;;;5043347;28;20367;-60
2022/10/03 07:44:02;;;;;;;67.85;6.75;;;;;;;;;;5043927;28;20037;-58
2022/10/03 07:46:32;;;;;;;46.65;6.65;;;;;;;;;;5044270;28;20037;-58
2022/10/03 07:49:17;;;;;;;52.63;6.68;;;;;;;;;;5044265;28;20068;-59
2022/10/03 07:51:44;;;;;;;64.38;6.18;;;;;;;;;;5046011;28;20053;-58
2022/10/03 07:54:43;;;;;;;87.32;7.55;;;;;;;;;;5042968;28;20048;-58
2022/10/03 07:57:22;;;;;;;73.82;6.75;;;;;;;;;;5002538;28;20046;-58
2022/10/03 08:00:04;;;;;;;71.05;7.05;;;;;;;;;;5004072;28;20042;-59
2022/10/03 08:03:13;;;;;;;60.33;7.30;;;;;;;;;;5004726;28;20230;-59
2022/10/03 08:05:42;;;;;;;75.05;6.88;;;;;;;;;;4930566;29;20042;-59
2022/10/03 08:08:12;;;;;;;50.80;6.10;;;;;;;;;;4930794;29;20623;-59
2022/10/03 08:10:58;;;;;;;49.92;8.80;;;;;;;;;;4931119;29;20051;-59
2022/10/03 08:13:43;;;;;;;62.75;6.50;;;;;;;;;;4930928;29;20047;-59
2022/10/03 08:16:19;;;;;;;73.00;7.20;;;;;;;;;;4933986;29;20615;-59
2022/10/03 08:19:21;;;;;;;86.30;8.20;;;;;;;;;;4931641;29;20043;-59
2022/10/03 08:22:02;;;;;;;64.05;6.25;;;;;;;;;;4893453;29;20060;-59
2022/10/03 08:24:34;;;;;;;65.80;6.38;;;;;;;;;;4893116;29;20143;-59
2022/10/03 08:27:04;;;;;;;38.53;5.32;;;;;;;;;;4892712;29;20537;-60
2022/10/03 08:29:48;;;;;;;61.90;6.30;;;;;;;;;;4892553;29;20063;-60
2022/10/03 08:32:14;;;;;;;63.92;6.40;;;;;;;;;;4906686;29;20059;-60
2022/10/03 08:34:41;;;;;;;62.70;6.28;;;;;;;;;;4949861;28;20043;-61
2022/10/03 08:37:07;;;;;;;75.68;6.85;;;;;;;;;;4934051;28;20063;-61
2022/10/03 08:39:55;;;;;;;54.50;5.60;;;;;;;;;;4983642;28;20053;-60
2022/10/03 08:42:24;;;;;;;56.92;6.90;;;;;;;;;;5013168;28;20137;-60
2022/10/03 08:45:09;;;;;;;41.17;4.90;;;;;;;;;;5012131;28;20038;-61
2022/10/03 08:47:48;;;;;;;67.82;5.90;;;;;;;;;;5012149;28;20050;-61
2022/10/03 08:50:15;;;;;;;59.03;6.47;;;;;;;;;;5012203;28;20113;-60
2022/10/03 08:53:14;;;;;;;53.05;5.53;;;;;;;;;;5011656;28;20620;-61
2022/10/03 08:55:41;;;;;;;83.55;7.20;;;;;;;;;;5007572;28;20053;-61
2022/10/03 08:58:08;;;;;;;51.17;5.43;;;;;;;;;;5008133;28;20061;-61
2022/10/03 09:00:40;;;;;;;46.72;5.22;;;;;;;;;;5008392;28;20053;-60
2022/10/03 09:03:38;;;;;;;45.65;5.07;;;;;;;;;;5007943;28;20080;-61
2022/10/03 09:06:27;;;;;;;61.03;5.53;;;;;;;;;;5005179;28;20125;-61
2022/10/03 09:08:59;;;;;;;47.58;4.95;;;;;;;;;;5006277;28;20054;-60
2022/10/03 09:11:26;;;;;;;54.60;5.57;;;;;;;;;;5007342;28;20074;-60
2022/10/03 09:14:04;;;;;;;77.43;7.22;;;;;;;;;;5007063;28;20042;-61
2022/10/03 09:16:38;;;;;;;40.88;5.30;;;;;;;;;;5007503;28;20049;-61
2022/10/03 09:19:08;;;;;;;55.50;5.88;;;;;;;;;;5007640;28;20053;-61
2022/10/03 09:21:53;;;;;;;55.10;5.10;;;;;;;;;;5007753;28;20042;-61
2022/10/03 09:24:38;;;;;;;52.45;6.53;;;;;;;;;;5007171;28;20045;-61
2022/10/03 09:27:07;;;;;;;48.47;6.55;;;;;;;;;;5007179;28;20144;-61
2022/10/03 09:29:43;;;;;;;78.70;7.30;;;;;;;;;;5007102;28;20718;-61
2022/10/03 09:32:28;;;;;;;59.45;7.82;;;;;;;;;;5027531;28;20064;-60
2022/10/03 09:35:22;;;;;;;59.75;6.00;;;;;;;;;;5045149;28;20042;-61
2022/10/03 09:38:08;;;;;;;67.45;7.88;;;;;;;;;;5044695;28;20049;-61
2022/10/03 09:40:43;;;;;;;54.70;6.50;;;;;;;;;;5045548;28;20051;-61
2022/10/03 09:43:16;;;;;;;66.85;7.05;;;;;;;;;;5045710;28;20052;-61
2022/10/03 09:46:01;;;;;;;53.67;6.70;;;;;;;;;;5049231;28;20037;-60
2022/10/03 09:48:43;;;;;;;55.40;6.43;;;;;;;;;;5044649;28;20124;-60
2022/10/03 09:51:20;;;;;;;65.57;7.63;;;;;;;;;;5044688;28;20048;-61
2022/10/03 09:53:52;;;;;;;58.42;6.50;;;;;;;;;;5043273;28;20078;-61
2022/10/03 09:56:37;;;;;;;66.97;6.90;;;;;;;;;;5044698;28;20033;-60
2022/10/03 09:59:14;;;;;;;43.03;5.75;;;;;;;;;;5044491;28;20037;-60
2022/10/03 10:01:51;;;;;;;64.10;6.60;;;;;;;;;;5044535;28;20057;-60
2022/10/03 10:04:38;;;;;;;64.10;6.18;;;;;;;;;;5047244;28;20037;-60
2022/10/03 10:07:26;;;;;;;69.05;7.03;;;;;;;;;;5045248;28;20071;-60
2022/10/03 10:10:15;;;;;;;71.78;6.60;;;;;;;;;;5047997;28;20697;-63
2022/10/03 10:13:00;;;;;;;79.75;7.53;;;;;;;;;;5005882;28;20057;-60
2022/10/03 10:15:38;;;;;;;62.25;6.38;;;;;;;;;;5001963;28;20050;-61
2022/10/03 10:18:05;;;;;;;81.80;7.30;;;;;;;;;;5001690;28;20053;-60
2022/10/03 10:20:54;;;;;;;56.72;5.70;;;;;;;;;;5001606;28;20046;-61
2022/10/03 10:23:27;;;;;;;85.70;7.68;;;;;;;;;;5005450;28;20088;-61
2022/10/03 10:25:53;;;;;;;64.00;6.25;;;;;;;;;;5001594;28;20042;-60
2022/10/03 10:28:39;;;;;;;82.93;7.07;;;;;;;;;;5004293;28;20037;-60
2022/10/03 10:31:17;;;;;;;45.40;5.22;;;;;;;;;;5002695;28;20149;-61
2022/10/03 10:33:53;;;;;;;101.53;7.90;;;;;;;;;;5005993;28;20045;-60
2022/10/03 10:36:22;;;;;;;49.88;5.22;;;;;;;;;;5001876;28;20057;-60
2022/10/03 10:38:55;;;;;;;61.40;5.32;;;;;;;;;;5001460;28;20045;-60
2022/10/03 10:41:34;;;;;;;64.18;5.65;;;;;;;;;;5001785;28;20046;-60
2022/10/03 10:44:03;;;;;;;90.13;6.97;;;;;;;;;;5001368;28;20396;-60
2022/10/03 10:46:48;;;;;;;56.90;5.43;;;;;;;;;;5002882;28;20046;-60
2022/10/03 10:49:41;;;;;;;79.30;6.88;;;;;;;;;;5012262;28;20061;-60
2022/10/03 10:52:26;;;;;;;54.45;4.47;;;;;;;;;;5048174;28;20056;-59
2022/10/03 10:55:04;;;;;;;70.32;5.70;;;;;;;;;;5046232;28;20041;-59
2022/10/03 10:57:30;;;;;;;75.22;5.45;;;;;;;;;;5043642;28;20041;-59
2022/10/03 11:00:14;;;;;;;61.65;4.75;;;;;;;;;;5043807;28;20037;-60
2022/10/03 11:02:59;;;;;;;83.63;5.80;;;;;;;;;;5043448;28;20667;-59
2022/10/03 11:05:39;;;;;;;60.72;4.75;;;;;;;;;;5043632;28;20044;-59
2022/10/03 11:08:24;;;;;;;48.85;4.20;;;;;;;;;;5043785;28;20029;-60
2022/10/03 11:11:09;;;;;;;60.17;4.22;;;;;;;;;;5043737;28;20569;-60
2022/10/03 11:14:05;;;;;;;74.85;4.90;;;;;;;;;;5044031;28;20041;-60
2022/10/03 11:16:34;;;;;;;55.55;3.97;;;;;;;;;;5024643;28;20507;-59
2022/10/03 11:19:03;;;;;;;57.33;3.95;;;;;;;;;;5026306;28;20091;-59
2022/10/03 11:21:45;;;;;;;46.35;3.55;;;;;;;;;;5025327;28;20077;-59
2022/10/03 11:24:14;;;;;;;40.55;3.22;;;;;;;;;;5024776;28;20120;-59
2022/10/03 11:26:40;;;;;;;57.13;3.95;;;;;;;;;;5024984;28;20053;-60
2022/10/03 11:29:10;;;;;;;57.33;3.85;;;;;;;;;;5025416;28;20550;-60
2022/10/03 11:31:55;;;;;;;89.25;5.85;;;;;;;;;;5025830;28;20076;-60
2022/10/03 11:34:22;;;;;;;62.53;4.20;;;;;;;;;;5027469;28;20072;-61
2022/10/03 11:37:07;;;;;;;51.25;3.63;;;;;;;;;;5029559;28;20056;-61
2022/10/03 11:39:41;;;;;;;71.95;4.88;;;;;;;;;;5029125;28;20147;-60
2022/10/03 11:42:22;;;;;;;24.83;2.47;;;;;;;;;;5029486;28;20140;-60
2022/10/03 11:45:02;;;;;;;56.95;4.22;;;;;;;;;;5029016;28;20050;-60
2022/10/03 11:47:41;;;;;;;60.13;4.18;;;;;;;;;;5028413;28;20111;-59
2022/10/03 11:50:13;;;;;;;52.67;4.10;;;;;;;;;;5028837;28;20477;-59
2022/10/03 11:52:40;;;;;;;58.55;4.43;;;;;;;;;;5032151;28;20080;-59
2022/10/03 11:55:12;;;;;;;59.00;4.30;;;;;;;;;;5052137;28;20045;-60
2022/10/03 11:57:42;;;;;;;68.47;4.80;;;;;;;;;;5048271;28;20037;-61
2022/10/03 12:00:29;;;;;;;56.78;3.83;;;;;;;;;;5046702;28;20568;-61
2022/10/03 12:02:59;;;;;;;68.50;4.60;;;;;;;;;;5041818;28;20045;-62
2022/10/03 12:05:34;;;;;;;54.33;3.88;;;;;;;;;;5046911;28;20041;-61
2022/10/03 12:11:13;;;;;;;55.90;4.10;;;;;;;;;;5046659;28;20103;-61
2022/10/03 12:13:45;;;;;;;79.47;5.65;;;;;;;;;;5046327;28;20033;-61
2022/10/03 12:16:19;;;;;;;56.78;4.65;;;;;;;;;;5050435;28;20037;-61
2022/10/03 12:18:46;;;;;;;45.28;3.58;;;;;;;;;;5051446;28;20045;-61
2022/10/03 12:21:20;;;;;;;60.25;4.60;;;;;;;;;;5046675;28;20045;-60
2022/10/03 12:23:51;;;;;;;75.68;4.95;;;;;;;;;;5046070;28;20116;-60
2022/10/03 12:26:27;;;;;;;52.33;3.92;;;;;;;;;;5046289;28;20059;-60
2022/10/03 12:28:55;;;;;;;57.70;4.13;;;;;;;;;;5046883;28;20041;-60
2022/10/03 12:31:22;;;;;;;65.75;4.55;;;;;;;;;;5048454;28;20548;-61
2022/10/03 12:33:51;;;;;;;82.22;5.47;;;;;;;;;;5048868;28;20061;-60
2022/10/03 12:36:37;;;;;;;40.65;3.20;;;;;;;;;;5046316;28;20049;-60
2022/10/03 12:39:14;;;;;;;37.05;2.80;;;;;;;;;;5045796;28;20041;-60
2022/10/03 12:41:54;;;;;;;72.13;4.97;;;;;;;;;;5045697;28;20071;-60
2022/10/03 12:44:32;;;;;;;51.88;3.97;;;;;;;;;;5046107;28;20071;-61
2022/10/03 12:47:03;;;;;;;64.20;5.22;;;;;;;;;;5046203;28;20040;-61
2022/10/03 12:49:37;;;;;;;67.25;4.53;;;;;;;;;;5047190;28;20364;-60
2022/10/03 12:52:13;;;;;;;77.38;5.30;;;;;;;;;;5046217;28;20117;-60
2022/10/03 12:54:45;;;;;;;39.17;3.08;;;;;;;;;;5047492;28;20052;-60
2022/10/03 12:57:27;;;;;;;41.07;3.20;;;;;;;;;;5045690;28;20272;-61
2022/10/03 13:00:13;;;;;;;74.85;5.32;;;;;;;;;;5040106;28;20289;-60
2022/10/03 13:02:42;;;;;;;45.80;3.42;;;;;;;;;;5050272;28;20132;-60
2022/10/03 13:05:29;;;;;;;55.70;4.32;;;;;;;;;;5046004;28;20570;-60
2022/10/03 13:07:56;;;;;;;69.38;4.78;;;;;;;;;;5045245;28;20067;-60
2022/10/03 13:10:32;;;;;;;83.65;5.55;;;;;;;;;;5047721;28;20120;-61
2022/10/03 13:13:21;;;;;;;67.97;4.68;;;;;;;;;;5049923;28;20045;-61
2022/10/03 13:15:47;;;;;;;92.05;6.03;;;;;;;;;;5047791;28;20067;-61
2022/10/03 13:18:36;;;;;;;39.13;3.05;;;;;;;;;;5045568;28;20036;-60
2022/10/03 13:21:08;;;;;;;48.10;4.10;;;;;;;;;;5045268;28;20152;-60
2022/10/03 13:24:01;;;;;;;71.30;4.85;;;;;;;;;;5044811;28;20135;-60
2022/10/03 13:26:57;;;;;;;76.47;5.18;;;;;;;;;;5045239;28;20533;-60
2022/10/03 13:29:32;;;;;;;30.05;2.60;;;;;;;;;;5002432;28;20677;-59
2022/10/03 13:32:05;;;;;;;47.38;3.70;;;;;;;;;;5002991;28;20050;-60
2022/10/03 13:34:55;;;;;;;42.85;3.28;;;;;;;;;;5004099;28;20113;-60
2022/10/03 13:37:30;;;;;;;70.40;5.18;;;;;;;;;;4979661;28;20058;-60
2022/10/03 13:40:03;;;;;;;62.38;4.63;;;;;;;;;;5006413;28;20481;-60
2022/10/03 13:42:32;;;;;;;47.25;3.58;;;;;;;;;;5002499;28;20052;-60
2022/10/03 13:45:02;;;;;;;53.40;4.03;;;;;;;;;;5003238;28;20049;-60
2022/10/03 13:47:43;;;;;;;81.88;5.97;;;;;;;;;;5002325;28;20054;-59
2022/10/03 13:50:18;;;;;;;50.00;3.80;;;;;;;;;;5002741;28;20046;-59
2022/10/03 13:52:49;;;;;;;73.60;5.20;;;;;;;;;;5002488;28;20050;-60
2022/10/03 13:55:23;;;;;;;61.05;4.38;;;;;;;;;;4988985;28;20193;-59
2022/10/03 13:57:49;;;;;;;84.85;5.38;;;;;;;;;;5004896;28;20049;-60
2022/10/03 14:00:18;;;;;;;51.97;3.88;;;;;;;;;;5002510;28;20065;-60
2022/10/03 14:03:03;;;;;;;61.50;4.47;;;;;;;;;;5002079;28;20052;-60
2022/10/03 14:05:36;;;;;;;72.45;5.00;;;;;;;;;;5016384;28;20071;-60
2022/10/03 14:08:05;;;;;;;50.53;3.60;;;;;;;;;;5044198;28;20120;-59
2022/10/03 14:10:47;;;;;;;94.57;6.45;;;;;;;;;;5045101;28;20683;-60
2022/10/03 14:13:21;;;;;;;72.50;4.85;;;;;;;;;;5047725;28;20905;-60
2022/10/03 14:15:55;;;;;;;88.80;5.70;;;;;;;;;;5048772;28;20584;-60
2022/10/03 14:18:21;;;;;;;52.38;3.97;;;;;;;;;;5044430;28;20044;-60
2022/10/03 14:21:06;;;;;;;60.00;4.07;;;;;;;;;;5044538;28;20047;-60
2022/10/03 14:23:50;;;;;;;45.92;3.45;;;;;;;;;;5043707;28;20037;-60
2022/10/03 14:26:16;;;;;;;;;;;;;;;;;;5044451;28;20037;-61
2022/10/03 14:28:46;;;;;;;51.63;4.05;;;;;;;;;;5044052;28;19925;-61
2022/10/03 14:31:25;;;;;;;68.90;4.90;;;;;;;;;;5048001;28;20048;-60
2022/10/03 14:33:57;;;;;;;59.78;4.07;;;;;;;;;;5047266;28;20127;-60
2022/10/03 14:36:44;;;;;;;47.33;3.70;;;;;;;;;;5044009;28;20560;-60
2022/10/03 14:39:27;;;;;;;38.13;2.97;;;;;;;;;;5043740;28;20056;-60
2022/10/03 14:41:53;;;;;;;83.65;5.63;;;;;;;;;;5043226;28;20045;-60
2022/10/03 14:44:22;;;;;;;70.80;4.57;;;;;;;;;;5043773;28;20025;-60
2022/10/03 14:46:52;;;;;;;72.78;5.05;;;;;;;;;;5043937;28;20038;-60
2022/10/03 14:49:22;;;;;;;84.28;6.10;;;;;;;;;;5047119;28;20091;-60
2022/10/03 14:52:19;;;;;;;50.80;4.07;;;;;;;;;;5044614;28;20448;-60
2022/10/03 14:54:49;;;;;;;109.93;7.80;;;;;;;;;;5045312;28;20041;-60
2022/10/03 14:57:35;;;;;;;46.63;3.78;;;;;;;;;;5043585;28;20509;-60
2022/10/03 15:00:42;;;;;;;43.08;3.20;;;;;;;;;;5043730;28;20030;-60
2022/10/03 15:03:15;;;;;;;66.35;4.68;;;;;;;;;;5043352;28;20048;-60
2022/10/03 15:06:01;;;;;;;67.73;4.77;;;;;;;;;;5043636;28;20041;-60
2022/10/03 15:08:31;;;;;;;76.85;5.15;;;;;;;;;;5047284;28;20049;-60
2022/10/03 15:10:58;;;;;;;47.30;3.67;;;;;;;;;;5047567;28;20056;-60
2022/10/03 15:13:26;;;;;;;64.25;4.30;;;;;;;;;;5050311;28;20045;-60
2022/10/03 15:15:54;;;;;;;75.47;5.82;;;;;;;;;;5050937;28;20221;-60
2022/10/03 15:18:23;;;;;;;50.22;4.05;;;;;;;;;;5047555;28;20094;-60
2022/10/03 15:20:51;;;;;;;70.85;5.43;;;;;;;;;;5047670;28;20045;-60
2022/10/03 15:23:22;;;;;;;42.97;3.72;;;;;;;;;;5047435;28;20049;-60
2022/10/03 15:25:51;;;;;;;83.13;5.95;;;;;;;;;;5046194;28;20033;-60
2022/10/03 15:28:35;;;;;;;55.85;4.32;;;;;;;;;;5050801;28;20052;-61
2022/10/03 15:31:09;;;;;;;48.72;3.90;;;;;;;;;;5051573;28;20112;-60
2022/10/03 15:33:36;;;;;;;68.95;5.38;;;;;;;;;;5051648;28;20041;-60
2022/10/03 15:36:09;;;;;;;60.63;4.85;;;;;;;;;;5047370;28;20335;-60